createdAt,value
2023-03-13T00:01:32.166Z,54648.41
2023-03-13T00:04:00.771Z,54628.50
2023-03-13T00:06:33.365Z,54646.41
2023-03-13T00:09:02.407Z,54684.19
2023-03-13T00:11:32.753Z,54692.16
2023-03-13T00:14:03.454Z,54771.69
2023-03-13T00:16:32.451Z,54765.72
2023-03-13T00:19:00.823Z,54801.53
2023-03-13T00:21:30.681Z,54847.28
2023-03-13T00:24:00.233Z,54930.81
2023-03-13T00:26:30.240Z,55020.31
2023-03-13T00:29:00.522Z,55105.84
2023-03-13T00:31:30.941Z,55199.31
2023-03-13T00:34:01.229Z,55336.56
2023-03-13T00:36:31.772Z,55519.56
2023-03-13T00:39:00.764Z,55738.41
2023-03-13T00:41:31.029Z,56058.69
2023-03-13T00:44:01.112Z,56347.19
2023-03-13T00:46:31.472Z,56733.22
2023-03-13T00:48:59.935Z,57481.53
2023-03-13T00:51:29.469Z,58405.22
2023-03-13T00:54:00.499Z,59094.16
2023-03-13T00:56:29.846Z,60462.47
2023-03-13T00:58:58.441Z,61520.47
2023-03-13T01:01:30.815Z,62700.38
2023-03-13T01:04:02.012Z,64006.34
2023-03-13T01:06:34.094Z,65973.22
2023-03-13T01:09:03.037Z,67204.59
2023-03-13T01:11:33.282Z,70305.94
2023-03-13T01:14:05.130Z,73490.06
2023-03-13T01:16:36.450Z,77075.53
2023-03-13T01:19:07.093Z,79126.03
2023-03-13T01:21:35.536Z,83487.44
2023-03-13T01:24:05.679Z,86312.47
2023-03-13T01:26:34.280Z,87854.38
2023-03-13T01:29:02.859Z,89654.13
2023-03-13T01:31:33.573Z,91454.81
2023-03-13T01:34:05.480Z,92741.59
2023-03-13T01:36:34.665Z,94801.44
2023-03-13T01:39:03.157Z,96862.50
2023-03-13T01:41:32.391Z,97635.72
2023-03-13T01:44:01.214Z,98666.94
2023-03-13T01:46:38.045Z,99698.47
2023-03-13T01:49:24.951Z,101504.38
2023-03-13T01:52:05.403Z,101762.47
2023-03-13T01:54:41.850Z,102536.75
2023-03-13T01:57:18.072Z,102278.66
2023-03-13T01:59:50.251Z,103311.25
2023-03-13T02:02:19.183Z,103569.44
2023-03-13T02:04:53.100Z,104344.16
2023-03-13T02:07:25.438Z,104602.44
2023-03-13T02:09:57.027Z,104602.44
2023-03-13T02:12:30.547Z,104344.16
2023-03-13T02:15:00.252Z,104860.72
2023-03-13T02:17:29.103Z,105377.34
2023-03-13T02:19:58.832Z,105377.34
2023-03-13T02:22:33.102Z,105377.34
2023-03-13T02:25:09.084Z,105635.72
2023-03-13T02:27:39.201Z,105635.72
2023-03-13T02:30:10.070Z,105635.72
2023-03-13T02:32:38.870Z,105894.09
2023-03-13T02:35:11.607Z,106152.47
2023-03-13T02:37:42.055Z,106410.88
2023-03-13T02:40:19.395Z,106410.88
2023-03-13T02:42:52.098Z,106669.31
2023-03-13T02:45:20.921Z,106410.88
2023-03-13T02:47:50.035Z,106410.88
2023-03-13T02:50:19.236Z,106152.47
2023-03-13T02:52:50.735Z,106152.47
2023-03-13T02:55:24.230Z,105894.09
2023-03-13T02:57:54.040Z,105894.09
2023-03-13T03:00:26.766Z,105635.72
2023-03-13T03:02:56.620Z,105635.72
2023-03-13T03:05:25.258Z,105635.72
2023-03-13T03:07:53.901Z,105635.72
2023-03-13T03:10:22.362Z,105635.72
2023-03-13T03:12:51.346Z,105635.72
2023-03-13T03:15:22.831Z,105377.34
2023-03-13T03:17:51.457Z,105119.03
2023-03-13T03:20:19.922Z,105119.03
2023-03-13T03:22:48.783Z,105119.03
2023-03-13T03:25:17.881Z,105377.34
2023-03-13T03:27:46.463Z,105635.72
2023-03-13T03:30:15.597Z,106152.47
2023-03-13T03:32:45.582Z,106152.47
2023-03-13T03:35:14.185Z,106152.47
2023-03-13T03:37:42.801Z,106152.47
2023-03-13T03:40:12.914Z,106410.88
2023-03-13T03:42:41.325Z,106669.31
2023-03-13T03:45:10.695Z,106927.75
2023-03-13T03:47:39.077Z,106927.75
2023-03-13T03:50:11.300Z,106669.31
2023-03-13T03:52:48.376Z,106927.75
2023-03-13T03:55:17.434Z,106669.31
2023-03-13T03:57:45.932Z,106410.88
2023-03-13T04:00:21.212Z,106410.88
2023-03-13T04:02:54.001Z,106669.31
2023-03-13T04:05:24.311Z,106410.88
2023-03-13T04:07:53.080Z,106927.75
2023-03-13T04:10:21.451Z,107186.22
2023-03-13T04:12:49.832Z,107186.22
2023-03-13T04:15:18.457Z,107444.69
2023-03-13T04:17:46.995Z,107444.69
2023-03-13T04:20:16.489Z,107444.69
2023-03-13T04:22:46.551Z,107444.69
2023-03-13T04:25:16.718Z,107186.22
2023-03-13T04:27:45.946Z,107444.69
2023-03-13T04:30:17.585Z,106927.75
2023-03-13T04:33:05.476Z,106927.75
2023-03-13T04:35:52.808Z,107444.69
2023-03-13T04:38:52.044Z,107186.22
2023-03-13T04:41:43.647Z,107186.22
2023-03-13T04:44:38.687Z,106927.75
2023-03-13T04:47:20.570Z,106669.31
2023-03-13T04:50:12.264Z,106669.31
2023-03-13T04:52:52.578Z,106410.88
2023-03-13T04:55:38.769Z,106410.88
2023-03-13T04:58:25.847Z,105894.09
2023-03-13T05:01:07.312Z,105635.72
2023-03-13T05:03:54.081Z,105377.34
2023-03-13T05:06:51.705Z,105377.34
2023-03-13T05:09:32.102Z,105635.72
2023-03-13T05:12:22.648Z,105119.03
2023-03-13T05:15:07.653Z,104860.72
2023-03-13T05:18:08.074Z,104860.72
2023-03-13T05:20:49.172Z,104085.91
2023-03-13T05:23:28.523Z,103827.66
2023-03-13T05:26:23.015Z,103569.44
2023-03-13T05:29:25.293Z,102794.91
2023-03-13T05:32:01.410Z,102020.53
2023-03-13T05:34:58.904Z,101246.34
2023-03-13T05:37:46.391Z,100472.31
2023-03-13T05:40:18.379Z,99698.47
2023-03-13T05:43:02.823Z,99182.69
2023-03-13T05:45:55.655Z,98666.94
2023-03-13T05:48:38.076Z,97893.50
2023-03-13T05:51:17.585Z,97120.22
2023-03-13T05:54:14.974Z,96862.50
2023-03-13T05:57:04.035Z,96089.47
2023-03-13T06:00:06.189Z,94801.44
2023-03-13T06:03:13.884Z,93771.38
2023-03-13T06:05:45.810Z,92999.00
2023-03-13T06:08:26.750Z,92484.19
2023-03-13T06:10:55.263Z,91969.47
2023-03-13T06:13:23.876Z,91454.81
2023-03-13T06:15:56.073Z,91197.50
2023-03-13T06:18:59.724Z,89654.13
2023-03-13T06:21:28.051Z,88882.69
2023-03-13T06:23:56.529Z,87340.31
2023-03-13T06:26:26.179Z,85798.66
2023-03-13T06:28:54.788Z,84000.91
2023-03-13T06:31:23.386Z,83487.44
2023-03-13T06:33:54.671Z,80921.25
2023-03-13T06:36:25.934Z,79126.03
2023-03-13T06:38:54.505Z,77844.31
2023-03-13T06:41:22.957Z,76819.28
2023-03-13T06:43:51.566Z,75282.31
2023-03-13T06:46:22.278Z,73490.06
2023-03-13T06:48:50.968Z,72978.16
2023-03-13T06:51:21.188Z,70771.47
2023-03-13T06:53:52.897Z,68094.97
2023-03-13T06:56:22.096Z,65189.13
2023-03-13T06:58:51.149Z,63581.63
2023-03-13T07:01:19.782Z,62712.34
2023-03-13T07:03:49.389Z,61528.44
2023-03-13T07:06:18.561Z,61572.28
2023-03-13T07:08:47.601Z,61319.19
2023-03-13T07:11:17.513Z,60518.25
2023-03-13T07:13:46.013Z,59960.50
2023-03-13T07:16:15.409Z,59345.06
2023-03-13T07:18:44.973Z,59030.44
2023-03-13T07:21:13.426Z,58576.44
2023-03-13T07:23:42.253Z,58232.00
2023-03-13T07:26:13.573Z,57863.72
2023-03-13T07:28:44.276Z,57716.41
2023-03-13T07:31:15.658Z,57632.81
2023-03-13T07:33:44.966Z,57519.34
2023-03-13T07:36:15.553Z,57469.59
2023-03-13T07:38:44.640Z,57497.47
2023-03-13T07:41:14.441Z,57360.13
2023-03-13T07:43:44.411Z,57097.41
2023-03-13T07:46:14.468Z,56972.03
2023-03-13T07:48:44.408Z,56790.94
2023-03-13T07:51:16.571Z,56745.16
2023-03-13T07:53:47.403Z,56788.94
2023-03-13T07:56:17.044Z,56566.09
2023-03-13T07:58:47.675Z,56371.09
2023-03-13T08:01:18.283Z,56291.50
2023-03-13T08:03:49.386Z,56126.34
2023-03-13T08:06:20.058Z,55825.94
2023-03-13T08:08:49.142Z,55672.75
2023-03-13T08:11:19.594Z,55583.22
2023-03-13T08:13:50.683Z,55593.19
2023-03-13T08:16:20.675Z,55559.34
2023-03-13T08:18:50.779Z,55451.94
2023-03-13T08:21:21.138Z,55611.09
2023-03-13T08:23:49.710Z,55475.81
2023-03-13T08:26:20.762Z,55519.56
2023-03-13T08:28:56.082Z,55501.66
2023-03-13T08:31:26.026Z,55567.31
2023-03-13T08:33:54.762Z,55453.94
2023-03-13T08:36:25.232Z,55336.56
2023-03-13T08:38:55.204Z,55308.72
2023-03-13T08:41:25.725Z,55344.53
2023-03-13T08:43:56.399Z,55408.19
2023-03-13T08:46:25.811Z,55302.75
2023-03-13T08:48:55.635Z,55203.31
2023-03-13T08:51:25.849Z,55113.78
2023-03-13T08:53:56.129Z,55058.09
2023-03-13T08:56:25.805Z,54887.06
2023-03-13T08:58:57.261Z,54906.94
2023-03-13T09:01:31.256Z,54926.84
2023-03-13T09:04:03.455Z,54952.69
2023-03-13T09:06:32.601Z,54920.88
2023-03-13T09:09:01.133Z,55000.41
2023-03-13T09:11:29.878Z,54853.25
2023-03-13T09:14:00.383Z,54733.91
2023-03-13T09:16:30.840Z,54668.28
2023-03-13T09:19:00.569Z,54608.63
2023-03-13T09:21:30.767Z,54570.84
2023-03-13T09:23:59.579Z,54616.56
2023-03-13T09:26:29.208Z,54592.72
2023-03-13T09:28:59.242Z,54654.38
2023-03-13T09:31:37.414Z,54678.22
2023-03-13T09:34:05.956Z,54686.19
2023-03-13T09:36:34.481Z,54656.34
2023-03-13T09:39:02.942Z,54680.22
2023-03-13T09:41:37.961Z,54612.59
2023-03-13T09:44:14.551Z,54564.88
2023-03-13T09:46:49.482Z,54419.69
2023-03-13T09:49:29.318Z,54352.09
2023-03-13T09:52:05.547Z,54326.25
2023-03-13T09:54:39.546Z,54350.09
2023-03-13T09:57:16.622Z,54371.97
2023-03-13T09:59:52.837Z,54266.59
2023-03-13T10:02:29.931Z,54214.88
2023-03-13T10:05:16.558Z,54195.00
2023-03-13T10:07:45.410Z,54181.06
2023-03-13T10:10:18.212Z,54202.94
2023-03-13T10:12:48.706Z,54181.06
2023-03-13T10:15:31.969Z,54139.31
2023-03-13T10:18:05.526Z,54107.50
2023-03-13T10:20:36.725Z,54085.63
2023-03-13T10:23:15.694Z,54091.59
2023-03-13T10:25:44.143Z,54051.81
2023-03-13T10:28:14.496Z,53996.16
2023-03-13T10:30:49.521Z,53946.44
2023-03-13T10:33:21.968Z,53950.44
2023-03-13T10:36:06.932Z,53984.22
2023-03-13T10:38:46.497Z,54037.91
2023-03-13T10:41:38.606Z,53924.56
2023-03-13T10:44:16.314Z,53934.50
2023-03-13T10:46:48.988Z,53936.50
2023-03-13T10:49:19.924Z,53948.44
2023-03-13T10:51:50.356Z,53916.63
2023-03-13T10:54:25.836Z,53916.63
2023-03-13T10:57:10.515Z,53860.94
2023-03-13T10:59:43.294Z,53914.63
2023-03-13T11:02:24.033Z,53892.75
2023-03-13T11:04:53.949Z,53880.84
2023-03-13T11:07:28.079Z,53902.69
2023-03-13T11:10:00.586Z,53914.63
2023-03-13T11:12:29.505Z,53856.97
2023-03-13T11:14:59.298Z,53880.84
2023-03-13T11:17:38.746Z,53870.88
2023-03-13T11:20:16.814Z,53823.16
2023-03-13T11:22:55.048Z,53809.25
2023-03-13T11:25:36.734Z,53821.19
2023-03-13T11:28:31.334Z,53815.22
2023-03-13T11:31:10.987Z,53793.34
2023-03-13T11:33:53.346Z,53803.28
2023-03-13T11:36:27.694Z,53755.56
2023-03-13T11:39:04.453Z,53765.50
2023-03-13T11:41:44.537Z,53769.50
2023-03-13T11:44:25.248Z,53737.69
2023-03-13T11:47:14.274Z,53743.66
2023-03-13T11:50:02.680Z,53721.78
2023-03-13T11:52:49.528Z,53725.75
2023-03-13T11:55:26.706Z,53739.66
2023-03-13T11:58:06.949Z,53733.69
2023-03-13T12:00:40.232Z,53725.75
2023-03-13T12:03:17.819Z,53687.97
2023-03-13T12:05:52.770Z,53701.88
2023-03-13T12:08:26.703Z,53658.16
2023-03-13T12:11:06.540Z,53674.06
2023-03-13T12:13:39.521Z,53624.34
2023-03-13T12:16:13.700Z,53650.19
2023-03-13T12:18:45.221Z,53646.22
2023-03-13T12:21:21.228Z,53666.09
2023-03-13T12:23:59.011Z,53630.31
2023-03-13T12:26:35.696Z,53606.47
2023-03-13T12:29:13.616Z,53604.47
2023-03-13T12:31:46.616Z,53618.38
2023-03-13T12:34:21.937Z,53636.28
2023-03-13T12:36:56.862Z,53628.31
2023-03-13T12:39:34.589Z,53610.44
2023-03-13T12:42:18.426Z,53620.38
2023-03-13T12:44:47.432Z,53600.50
2023-03-13T12:47:23.597Z,53606.47
2023-03-13T12:50:17.940Z,53618.38
2023-03-13T12:53:04.588Z,53596.53
2023-03-13T12:55:56.424Z,53574.66
2023-03-13T12:58:31.515Z,53626.34
2023-03-13T13:01:05.587Z,53584.59
2023-03-13T13:03:37.940Z,53618.38
2023-03-13T13:06:11.724Z,53572.66
2023-03-13T13:08:44.088Z,53550.78
2023-03-13T13:11:50.199Z,53592.53
2023-03-13T13:14:52.006Z,53558.75
2023-03-13T13:17:25.946Z,53594.53
2023-03-13T13:19:55.165Z,53580.63
2023-03-13T13:22:52.752Z,53558.75
2023-03-13T13:25:33.649Z,53546.81
2023-03-13T13:28:34.029Z,53588.56
2023-03-13T13:31:03.357Z,53522.97
2023-03-13T13:33:41.256Z,53574.66
2023-03-13T13:36:42.128Z,53564.72
2023-03-13T13:39:36.868Z,53580.63
2023-03-13T13:42:42.040Z,53572.66
2023-03-13T13:45:27.848Z,53588.56
2023-03-13T13:48:22.745Z,53564.72
2023-03-13T13:51:36.599Z,53578.63
2023-03-13T13:54:18.029Z,53550.78
2023-03-13T13:56:49.797Z,53550.78
2023-03-13T13:59:34.255Z,53560.72
2023-03-13T14:02:31.800Z,53566.69
2023-03-13T14:05:06.662Z,53562.72
2023-03-13T14:07:49.082Z,53560.72
2023-03-13T14:10:27.274Z,53572.66
2023-03-13T14:12:57.990Z,53574.66
2023-03-13T14:15:28.118Z,53562.72
2023-03-13T14:18:01.030Z,53558.75
2023-03-13T14:20:33.326Z,53608.44
2023-03-13T14:23:03.898Z,53576.63
2023-03-13T14:25:44.808Z,53554.78
2023-03-13T14:28:25.293Z,53562.72
2023-03-13T14:30:57.937Z,53542.84
2023-03-13T14:33:28.726Z,53562.72
2023-03-13T14:35:57.946Z,53566.69
2023-03-13T14:38:30.064Z,53578.63
2023-03-13T14:40:58.715Z,53554.78
2023-03-13T14:43:34.832Z,53570.69
2023-03-13T14:46:15.840Z,53562.72
2023-03-13T14:48:46.073Z,53560.72
2023-03-13T14:51:22.489Z,53582.59
2023-03-13T14:53:58.933Z,53560.72
2023-03-13T14:56:36.837Z,53542.84
2023-03-13T14:59:10.333Z,53584.59
2023-03-13T15:01:38.682Z,53550.78
2023-03-13T15:04:08.646Z,53546.81
2023-03-13T15:06:37.201Z,53544.81
2023-03-13T15:09:21.176Z,53544.81
2023-03-13T15:11:58.935Z,53530.91
2023-03-13T15:14:39.542Z,53554.78
2023-03-13T15:17:17.705Z,53534.88
2023-03-13T15:19:52.404Z,53526.94
2023-03-13T15:22:28.178Z,53542.84
2023-03-13T15:25:06.085Z,53503.06
2023-03-13T15:27:35.916Z,53528.94
2023-03-13T15:30:05.329Z,53526.94
2023-03-13T15:32:36.051Z,53497.13
2023-03-13T15:35:22.767Z,53522.97
2023-03-13T15:37:51.589Z,53522.97
2023-03-13T15:40:20.821Z,53483.19
2023-03-13T15:42:49.341Z,53518.97
2023-03-13T15:45:18.095Z,53518.97
2023-03-13T15:47:48.975Z,53538.88
2023-03-13T15:50:22.527Z,53511.03
2023-03-13T15:52:51.212Z,53511.03
2023-03-13T15:55:19.773Z,53507.06
2023-03-13T15:57:50.663Z,53554.78
2023-03-13T16:00:22.915Z,53528.94
2023-03-13T16:02:51.872Z,53497.13
2023-03-13T16:05:21.713Z,53515.00
2023-03-13T16:07:50.231Z,53526.94
2023-03-13T16:10:23.852Z,53507.06
2023-03-13T16:12:53.872Z,53528.94
2023-03-13T16:15:22.608Z,53542.84
2023-03-13T16:17:51.289Z,53542.84
2023-03-13T16:20:23.821Z,53534.88
2023-03-13T16:22:53.761Z,53526.94
2023-03-13T16:25:23.238Z,53534.88
2023-03-13T16:27:53.579Z,53552.78
2023-03-13T16:30:25.033Z,53578.63
2023-03-13T16:32:53.612Z,53564.72
2023-03-13T16:35:24.229Z,53538.88
2023-03-13T16:37:52.739Z,53590.56
2023-03-13T16:40:23.292Z,53594.53
2023-03-13T16:42:51.930Z,53578.63
2023-03-13T16:45:20.728Z,53552.78
2023-03-13T16:47:50.702Z,53578.63
2023-03-13T16:50:25.293Z,53602.47
2023-03-13T16:52:54.826Z,53570.69
2023-03-13T16:55:28.333Z,53586.56
2023-03-13T16:57:57.276Z,53578.63
2023-03-13T17:00:27.495Z,53608.44
2023-03-13T17:02:57.528Z,53576.63
2023-03-13T17:05:28.457Z,53602.47
2023-03-13T17:07:57.018Z,53574.66
2023-03-13T17:10:28.501Z,53614.41
2023-03-13T17:12:57.545Z,53632.31
2023-03-13T17:15:27.881Z,53630.31
2023-03-13T17:17:56.512Z,53604.47
2023-03-13T17:20:28.310Z,53596.53
2023-03-13T17:22:57.373Z,53620.38
2023-03-13T17:25:26.248Z,53636.28
2023-03-13T17:27:55.165Z,53648.22
2023-03-13T17:30:26.071Z,53646.22
2023-03-13T17:32:54.704Z,53650.19
2023-03-13T17:35:24.273Z,53670.09
2023-03-13T17:37:54.351Z,53658.16
2023-03-13T17:40:24.695Z,53644.22
2023-03-13T17:42:53.107Z,53642.25
2023-03-13T17:45:22.879Z,53678.03
2023-03-13T17:47:51.375Z,53666.09
2023-03-13T17:50:22.470Z,53646.22
2023-03-13T17:52:51.538Z,53686.00
2023-03-13T17:55:21.696Z,53670.09
2023-03-13T17:57:50.202Z,53686.00
2023-03-13T18:00:24.473Z,53674.06
2023-03-13T18:02:53.073Z,53666.09
2023-03-13T18:05:21.898Z,53682.00
2023-03-13T18:07:50.877Z,53668.09
2023-03-13T18:10:23.391Z,53662.13
2023-03-13T18:12:52.937Z,53658.16
2023-03-13T18:15:26.972Z,53682.00
2023-03-13T18:17:55.442Z,53687.97
2023-03-13T18:20:26.138Z,53674.06
2023-03-13T18:22:59.527Z,53654.19
2023-03-13T18:25:30.531Z,53670.09
2023-03-13T18:27:59.327Z,53678.03
2023-03-13T18:30:28.279Z,53680.03
2023-03-13T18:32:56.926Z,53723.75
2023-03-13T18:35:25.628Z,53666.09
2023-03-13T18:37:54.143Z,53695.94
2023-03-13T18:40:25.281Z,53687.97
2023-03-13T18:42:55.603Z,53707.84
2023-03-13T18:45:26.523Z,53725.75
2023-03-13T18:47:55.136Z,53707.84
2023-03-13T18:50:26.675Z,53725.75
2023-03-13T18:52:55.576Z,53721.78
2023-03-13T18:55:24.964Z,53715.81
2023-03-13T18:57:55.833Z,53709.84
2023-03-13T19:00:27.624Z,53735.69
2023-03-13T19:02:56.296Z,53697.91
2023-03-13T19:05:25.451Z,53729.72
2023-03-13T19:07:53.920Z,53703.88
2023-03-13T19:10:25.314Z,53713.81
2023-03-13T19:12:56.185Z,53739.66
2023-03-13T19:15:28.523Z,53745.63
2023-03-13T19:17:57.571Z,53739.66
2023-03-13T19:20:28.598Z,53741.66
2023-03-13T19:23:00.977Z,53717.78
2023-03-13T19:25:29.835Z,53721.78
2023-03-13T19:27:59.692Z,53765.50
2023-03-13T19:30:29.700Z,53757.56
2023-03-13T19:32:58.512Z,53769.50
2023-03-13T19:35:30.441Z,53761.53
2023-03-13T19:37:59.013Z,53791.34
2023-03-13T19:40:29.667Z,53795.34
2023-03-13T19:42:59.452Z,53821.19
2023-03-13T19:45:27.877Z,53864.94
2023-03-13T19:47:56.451Z,53849.03
2023-03-13T19:50:27.785Z,53884.81
2023-03-13T19:52:56.504Z,53896.75
2023-03-13T19:55:24.943Z,53910.66
2023-03-13T19:57:53.413Z,53904.69
2023-03-13T20:00:25.416Z,53960.38
2023-03-13T20:02:55.361Z,53944.47
2023-03-13T20:05:24.523Z,53994.16
2023-03-13T20:07:55.470Z,54012.06
2023-03-13T20:10:24.504Z,54027.97
2023-03-13T20:12:53.757Z,54043.88
2023-03-13T20:15:23.675Z,54067.75
2023-03-13T20:17:52.308Z,54055.81
2023-03-13T20:20:21.054Z,54079.66
2023-03-13T20:22:49.617Z,54109.50
2023-03-13T20:25:18.176Z,54103.53
2023-03-13T20:27:46.600Z,54123.41
2023-03-13T20:30:15.149Z,54107.50
2023-03-13T20:32:57.052Z,54145.28
2023-03-13T20:35:29.296Z,54167.16
2023-03-13T20:37:59.862Z,54159.19
2023-03-13T20:40:28.668Z,54147.28
2023-03-13T20:42:58.364Z,54183.06
2023-03-13T20:45:28.475Z,54198.97
2023-03-13T20:47:58.885Z,54216.88
2023-03-13T20:50:27.486Z,54198.97
2023-03-13T20:52:56.561Z,54236.75
2023-03-13T20:55:24.995Z,54238.75
2023-03-13T20:57:55.828Z,54272.53
2023-03-13T21:00:24.508Z,54254.66
2023-03-13T21:02:54.384Z,54254.66
2023-03-13T21:05:24.360Z,54292.44
2023-03-13T21:07:52.888Z,54278.50
2023-03-13T21:10:21.332Z,54320.28
2023-03-13T21:12:50.046Z,54320.28
2023-03-13T21:15:18.588Z,54366.00
2023-03-13T21:17:46.978Z,54405.78
2023-03-13T21:20:15.907Z,54453.50
2023-03-13T21:22:45.765Z,54463.44
2023-03-13T21:25:14.513Z,54471.41
2023-03-13T21:27:44.853Z,54505.22
2023-03-13T21:30:15.498Z,54507.19
2023-03-13T21:32:44.106Z,54519.13
2023-03-13T21:35:13.394Z,54552.94
2023-03-13T21:37:42.921Z,54596.69
2023-03-13T21:40:14.123Z,54626.53
2023-03-13T21:42:43.557Z,54664.31
2023-03-13T21:45:13.014Z,54652.38
2023-03-13T21:47:41.671Z,54692.16
2023-03-13T21:50:11.330Z,54704.09
2023-03-13T21:52:42.351Z,54751.81
2023-03-13T21:55:14.105Z,54759.78
2023-03-13T21:57:42.588Z,54783.63
2023-03-13T22:00:14.310Z,54787.63
2023-03-13T22:02:43.525Z,54793.56
2023-03-13T22:05:12.621Z,54807.50
2023-03-13T22:07:41.082Z,54803.53
2023-03-13T22:10:10.635Z,54787.63
2023-03-13T22:12:40.505Z,54809.50
2023-03-13T22:15:11.130Z,54767.72
2023-03-13T22:17:39.742Z,54801.53
2023-03-13T22:20:10.190Z,54829.38
2023-03-13T22:22:38.577Z,54855.22
2023-03-13T22:25:07.645Z,54867.16
2023-03-13T22:27:36.529Z,54895.00
2023-03-13T22:30:07.885Z,54926.84
2023-03-13T22:32:36.367Z,54938.75
2023-03-13T22:35:05.471Z,54986.50
2023-03-13T22:37:33.911Z,55058.09
2023-03-13T22:40:02.559Z,55103.84
2023-03-13T22:42:30.912Z,55066.06
2023-03-13T22:44:59.250Z,55095.88
2023-03-13T22:47:29.106Z,55129.69
2023-03-13T22:49:57.490Z,55117.78
2023-03-13T22:52:30.773Z,55125.72
2023-03-13T22:54:59.255Z,55081.97
2023-03-13T22:57:29.273Z,55074.00
2023-03-13T22:59:59.231Z,55121.75
2023-03-13T23:02:32.046Z,55149.59
2023-03-13T23:05:01.382Z,55107.81
2023-03-13T23:07:32.461Z,55163.53
2023-03-13T23:10:00.895Z,55143.63
2023-03-13T23:12:30.989Z,55157.56
2023-03-13T23:15:02.114Z,55145.63
2023-03-13T23:17:34.244Z,55101.84
2023-03-13T23:20:05.185Z,55070.03
2023-03-13T23:22:34.884Z,55062.09
2023-03-13T23:25:03.298Z,55022.31
2023-03-13T23:27:32.190Z,55056.13
2023-03-13T23:30:04.272Z,55058.09
2023-03-13T23:32:37.845Z,55030.25
2023-03-13T23:35:07.701Z,55006.38
2023-03-13T23:37:36.735Z,54958.66
2023-03-13T23:40:10.416Z,54948.72
2023-03-13T23:42:38.894Z,54906.94
2023-03-13T23:45:09.257Z,54893.03
2023-03-13T23:47:39.121Z,54855.22
2023-03-13T23:50:07.775Z,54837.34
2023-03-13T23:52:36.696Z,54761.75
2023-03-13T23:55:06.544Z,54767.72
2023-03-13T23:57:37.674Z,54712.03
